createdAt,value
2017-11-07T00:01:23.028Z,20.12
2017-11-07T00:03:50.589Z,19.33
2017-11-07T00:06:18.858Z,20.88
2017-11-07T00:08:47.093Z,23.40
2017-11-07T00:11:14.572Z,22.08
2017-11-07T00:13:42.028Z,23.00
2017-11-07T00:16:09.487Z,19.75
2017-11-07T00:18:36.969Z,23.02
2017-11-07T00:21:04.526Z,19.83
2017-11-07T00:23:32.773Z,18.50
2017-11-07T00:26:00.330Z,17.55
2017-11-07T00:28:28.584Z,17.25
2017-11-07T00:30:56.813Z,17.10
2017-11-07T00:33:24.300Z,17.65
2017-11-07T00:35:52.529Z,16.17
2017-11-07T00:38:20.093Z,16.60
2017-11-07T00:40:48.338Z,17.25
2017-11-07T00:43:15.807Z,16.92
2017-11-07T00:45:44.029Z,17.05
2017-11-07T00:48:11.524Z,16.65
2017-11-07T00:50:38.981Z,18.00
2017-11-07T00:53:06.438Z,16.92
2017-11-07T00:55:33.909Z,17.98
2017-11-07T00:58:01.465Z,18.73
2017-11-07T01:00:29.707Z,17.52
2017-11-07T01:02:57.220Z,17.62
2017-11-07T01:05:24.708Z,15.70
2017-11-07T01:07:52.973Z,15.00
2017-11-07T01:10:21.227Z,17.98
2017-11-07T01:12:49.456Z,16.55
2017-11-07T01:15:17.032Z,15.23
2017-11-07T01:17:45.252Z,16.30
2017-11-07T01:20:12.716Z,17.00
2017-11-07T01:22:40.276Z,16.10
2017-11-07T01:25:08.541Z,16.70
2017-11-07T01:27:36.796Z,16.92
2017-11-07T01:30:04.344Z,16.65
2017-11-07T01:32:31.888Z,17.00
2017-11-07T01:35:00.116Z,18.02
2017-11-07T01:37:27.568Z,16.48
2017-11-07T01:39:55.126Z,17.62
2017-11-07T01:42:22.678Z,16.50
2017-11-07T01:44:50.905Z,17.17
2017-11-07T01:47:18.564Z,17.48
2017-11-07T01:49:46.033Z,17.77
2017-11-07T01:52:14.282Z,17.17
2017-11-07T01:54:42.541Z,18.75
2017-11-07T01:57:10.800Z,17.25
2017-11-07T01:59:39.032Z,17.10
2017-11-07T02:02:06.604Z,15.35
2017-11-07T02:04:34.144Z,15.88
2017-11-07T02:07:01.695Z,16.85
2017-11-07T02:09:29.958Z,16.27
2017-11-07T02:11:58.221Z,15.90
2017-11-07T02:14:26.473Z,17.85
2017-11-07T02:16:54.733Z,18.15
2017-11-07T02:19:23.198Z,17.00
2017-11-07T02:21:51.461Z,19.40
2017-11-07T02:24:19.713Z,17.30
2017-11-07T02:26:47.205Z,18.60
2017-11-07T02:29:14.656Z,19.00
2017-11-07T02:31:42.121Z,16.83
2017-11-07T02:34:09.689Z,17.37
2017-11-07T02:36:37.913Z,16.80
2017-11-07T02:39:05.392Z,17.10
2017-11-07T02:41:33.649Z,17.83
2017-11-07T02:44:01.924Z,17.15
2017-11-07T02:46:30.175Z,18.33
2017-11-07T02:48:58.393Z,18.27
2017-11-07T02:51:25.853Z,19.77
2017-11-07T02:53:53.468Z,18.42
2017-11-07T02:56:20.925Z,19.12
2017-11-07T02:58:48.401Z,19.20
2017-11-07T03:01:16.713Z,19.70
2017-11-07T03:03:44.597Z,19.05
2017-11-07T03:06:12.152Z,17.95
2017-11-07T03:08:40.513Z,18.52
2017-11-07T03:11:08.776Z,19.50
2017-11-07T03:13:37.037Z,20.35
2017-11-07T03:16:05.302Z,19.75
2017-11-07T03:18:33.560Z,22.30
2017-11-07T03:21:01.921Z,19.58
2017-11-07T03:23:29.481Z,20.90
2017-11-07T03:25:57.700Z,20.58
2017-11-07T03:28:25.164Z,20.85
2017-11-07T03:30:53.418Z,21.42
2017-11-07T03:33:20.881Z,20.85
2017-11-07T03:35:49.124Z,20.17
2017-11-07T03:38:17.370Z,23.40
2017-11-07T03:40:44.932Z,20.77
2017-11-07T03:43:13.156Z,22.02
2017-11-07T03:45:40.733Z,20.40
2017-11-07T03:48:08.957Z,20.73
2017-11-07T03:50:36.416Z,19.27
2017-11-07T03:53:03.928Z,18.70
2017-11-07T03:55:31.380Z,20.10
2017-11-07T03:57:58.840Z,17.90
2017-11-07T04:00:26.409Z,21.23
2017-11-07T04:02:54.652Z,17.92
2017-11-07T04:05:22.116Z,18.87
2017-11-07T04:07:50.420Z,17.12
2017-11-07T04:10:17.912Z,17.08
2017-11-07T04:12:46.173Z,17.23
2017-11-07T04:15:14.396Z,17.02
2017-11-07T04:17:42.076Z,15.30
2017-11-07T04:20:10.337Z,16.20
2017-11-07T04:22:38.597Z,15.50
2017-11-07T04:25:06.837Z,15.75
2017-11-07T04:27:35.120Z,15.85
2017-11-07T04:30:03.377Z,14.80
2017-11-07T04:32:31.612Z,14.73
2017-11-07T04:34:59.073Z,13.98
2017-11-07T04:37:26.549Z,13.15
2017-11-07T04:39:54.009Z,12.95
2017-11-07T04:42:21.464Z,15.20
2017-11-07T04:44:48.929Z,15.15
2017-11-07T04:47:16.384Z,14.48
2017-11-07T04:49:44.649Z,15.15
2017-11-07T04:52:12.889Z,15.13
2017-11-07T04:54:40.449Z,14.75
2017-11-07T04:57:08.708Z,15.93
2017-11-07T04:59:36.944Z,16.80
2017-11-07T05:02:04.407Z,15.45
2017-11-07T05:04:31.960Z,16.33
2017-11-07T05:07:00.185Z,16.52
2017-11-07T05:09:27.657Z,17.77
2017-11-07T05:11:55.896Z,15.50
2017-11-07T05:14:23.461Z,15.30
2017-11-07T05:16:51.688Z,18.27
2017-11-07T05:19:19.149Z,15.77
2017-11-07T05:21:46.613Z,15.45
2017-11-07T05:24:14.842Z,15.35
2017-11-07T05:26:42.567Z,16.58
2017-11-07T05:29:10.021Z,15.02
2017-11-07T05:31:37.493Z,14.60
2017-11-07T05:34:05.749Z,16.08
2017-11-07T05:36:33.229Z,16.10
2017-11-07T05:39:00.693Z,15.90
2017-11-07T05:41:28.177Z,18.00
2017-11-07T05:43:56.441Z,15.38
2017-11-07T05:46:24.700Z,17.12
2017-11-07T05:48:52.964Z,16.87
2017-11-07T05:51:21.196Z,17.15
2017-11-07T05:53:48.761Z,17.23
2017-11-07T05:56:17.230Z,16.33
2017-11-07T05:58:45.485Z,15.32
2017-11-07T06:01:13.749Z,16.98
2017-11-07T06:03:42.018Z,15.95
2017-11-07T06:06:10.249Z,15.40
2017-11-07T06:08:37.721Z,15.90
2017-11-07T06:11:05.944Z,15.40
2017-11-07T06:13:33.497Z,16.42
2017-11-07T06:16:01.061Z,15.55
2017-11-07T06:18:29.372Z,17.67
2017-11-07T06:20:56.820Z,16.10
2017-11-07T06:23:24.308Z,17.35
2017-11-07T06:25:52.569Z,17.67
2017-11-07T06:28:20.797Z,16.85
2017-11-07T06:30:48.278Z,15.68
2017-11-07T06:33:16.573Z,18.15
2017-11-07T06:35:44.058Z,17.58
2017-11-07T06:38:11.520Z,17.12
2017-11-07T06:40:39.745Z,16.55
2017-11-07T06:43:07.221Z,16.10
2017-11-07T06:45:35.484Z,16.75
2017-11-07T06:48:03.729Z,21.37
2017-11-07T06:50:31.204Z,20.35
2017-11-07T06:52:58.661Z,18.80
2017-11-07T06:55:26.136Z,21.83
2017-11-07T06:57:53.804Z,19.83
2017-11-07T07:00:22.032Z,18.83
2017-11-07T07:02:49.509Z,18.17
2017-11-07T07:05:17.757Z,18.05
2017-11-07T07:07:45.980Z,17.10
2017-11-07T07:10:13.460Z,16.33
2017-11-07T07:12:41.696Z,15.35
2017-11-07T07:15:09.164Z,17.12
2017-11-07T07:17:37.412Z,17.75
2017-11-07T07:20:04.971Z,15.20
2017-11-07T07:22:32.445Z,15.45
2017-11-07T07:24:59.958Z,13.20
2017-11-07T07:27:28.183Z,14.48
2017-11-07T07:29:55.771Z,14.07
2017-11-07T07:32:23.993Z,15.52
2017-11-07T07:34:51.461Z,12.88
2017-11-07T07:37:19.705Z,12.45
2017-11-07T07:39:47.161Z,14.43
2017-11-07T07:42:15.384Z,14.00
2017-11-07T07:44:42.856Z,13.75
2017-11-07T07:47:11.091Z,13.85
2017-11-07T07:49:38.576Z,12.95
2017-11-07T07:52:06.797Z,12.23
2017-11-07T07:54:34.266Z,14.10
2017-11-07T07:57:02.504Z,12.55
2017-11-07T07:59:30.064Z,13.02
2017-11-07T08:01:58.333Z,12.27
2017-11-07T08:04:26.565Z,12.68
2017-11-07T08:06:54.033Z,13.60
2017-11-07T08:09:22.281Z,12.88
2017-11-07T08:11:49.741Z,14.57
2017-11-07T08:14:17.966Z,13.40
2017-11-07T08:16:45.436Z,13.35
2017-11-07T08:19:13.668Z,15.18
2017-11-07T08:21:41.141Z,15.75
2017-11-07T08:24:09.364Z,16.95
2017-11-07T08:26:36.832Z,18.00
2017-11-07T08:29:05.129Z,17.92
2017-11-07T08:31:32.596Z,21.67
2017-11-07T08:34:00.065Z,20.80
2017-11-07T08:36:27.541Z,20.45
2017-11-07T08:38:54.996Z,19.52
2017-11-07T08:41:22.517Z,19.95
2017-11-07T08:43:50.752Z,20.73
2017-11-07T08:46:18.310Z,20.05
2017-11-07T08:48:46.568Z,18.92
2017-11-07T08:51:14.791Z,19.87
2017-11-07T08:53:42.276Z,18.77
2017-11-07T08:56:10.511Z,20.37
2017-11-07T08:58:37.995Z,19.15
2017-11-07T09:01:05.515Z,18.65
2017-11-07T09:03:33.800Z,19.08
2017-11-07T09:06:01.269Z,18.45
2017-11-07T09:08:28.761Z,20.75
2017-11-07T09:10:57.027Z,19.00
2017-11-07T09:13:25.280Z,18.45
2017-11-07T09:15:53.521Z,17.37
2017-11-07T09:18:20.976Z,20.25
2017-11-07T09:20:49.205Z,19.10
2017-11-07T09:23:16.785Z,17.65
2017-11-07T09:25:45.009Z,19.48
2017-11-07T09:28:12.490Z,17.10
2017-11-07T09:30:40.737Z,19.00
2017-11-07T09:33:08.197Z,17.55
2017-11-07T09:35:36.448Z,18.12
2017-11-07T09:38:04.713Z,17.75
2017-11-07T09:40:32.948Z,19.35
2017-11-07T09:43:00.508Z,17.58
2017-11-07T09:45:28.781Z,19.87
2017-11-07T09:47:57.033Z,19.52
2017-11-07T09:50:25.253Z,18.80
2017-11-07T09:52:52.833Z,17.92
2017-11-07T09:55:21.094Z,19.90
2017-11-07T09:57:49.320Z,17.67
2017-11-07T10:00:16.792Z,17.45
2017-11-07T10:02:45.052Z,18.67
2017-11-07T10:05:13.292Z,16.67
2017-11-07T10:07:40.744Z,18.00
2017-11-07T10:10:08.296Z,19.10
2017-11-07T10:12:36.528Z,18.85
2017-11-07T10:15:03.990Z,18.45
2017-11-07T10:17:31.472Z,19.92
2017-11-07T10:19:58.937Z,18.98
2017-11-07T10:22:26.392Z,20.25
2017-11-07T10:24:53.869Z,17.95
2017-11-07T10:27:22.097Z,20.10
2017-11-07T10:29:49.572Z,19.40
2017-11-07T10:32:17.832Z,21.33
2017-11-07T10:34:46.057Z,32.83
2017-11-07T10:37:13.633Z,19.55
2017-11-07T10:39:41.889Z,17.10
2017-11-07T10:42:09.354Z,16.23
2017-11-07T10:44:37.597Z,24.00
2017-11-07T10:47:05.856Z,30.70
2017-11-07T10:49:34.105Z,28.30
2017-11-07T10:52:01.661Z,28.90
2017-11-07T10:54:29.888Z,20.65
2017-11-07T10:56:57.364Z,19.23
2017-11-07T10:59:25.631Z,19.65
2017-11-07T11:01:54.081Z,17.80
2017-11-07T11:04:21.544Z,24.67
2017-11-07T11:06:49.789Z,19.85
2017-11-07T11:09:18.149Z,18.33
2017-11-07T11:11:46.368Z,18.08
2017-11-07T11:14:13.833Z,16.45
2017-11-07T11:16:41.392Z,17.05
2017-11-07T11:19:09.657Z,16.30
2017-11-07T11:21:37.889Z,15.05
2017-11-07T11:24:05.457Z,13.62
2017-11-07T11:26:33.701Z,12.13
2017-11-07T11:29:01.365Z,13.40
2017-11-07T11:31:29.596Z,13.63
2017-11-07T11:33:57.068Z,13.70
2017-11-07T11:36:25.328Z,12.87
2017-11-07T11:38:53.560Z,12.33
2017-11-07T11:41:21.146Z,13.90
2017-11-07T11:43:49.385Z,13.07
2017-11-07T11:46:16.937Z,13.73
2017-11-07T11:48:45.175Z,14.17
2017-11-07T11:51:13.429Z,14.93
2017-11-07T11:53:40.897Z,14.33
2017-11-07T11:56:09.161Z,14.73
2017-11-07T11:58:37.417Z,14.47
2017-11-07T12:01:05.657Z,13.87
2017-11-07T12:03:33.140Z,15.35
2017-11-07T12:06:00.669Z,15.80
2017-11-07T12:08:28.924Z,15.40
2017-11-07T12:10:57.185Z,14.73
2017-11-07T12:13:25.544Z,14.02
2017-11-07T12:15:53.807Z,16.62
2017-11-07T12:18:22.035Z,16.50
2017-11-07T12:20:49.508Z,16.67
2017-11-07T12:23:17.773Z,15.73
2017-11-07T12:25:46.229Z,16.05
2017-11-07T12:28:14.497Z,16.00
2017-11-07T12:30:42.804Z,15.90
2017-11-07T12:33:10.501Z,18.00
2017-11-07T12:35:38.729Z,14.73
2017-11-07T12:38:06.301Z,16.58
2017-11-07T12:40:34.674Z,17.08
2017-11-07T12:43:03.005Z,17.83
2017-11-07T12:45:30.585Z,15.63
2017-11-07T12:47:58.944Z,14.95
2017-11-07T12:50:38.881Z,16.62
2017-11-07T12:53:06.513Z,15.68
2017-11-07T12:55:34.773Z,17.23
2017-11-07T12:58:03.137Z,16.58
2017-11-07T13:00:31.376Z,18.10
2017-11-07T13:02:58.844Z,16.23
2017-11-07T13:05:27.084Z,16.15
2017-11-07T13:07:54.641Z,16.33
2017-11-07T13:10:22.901Z,17.02
2017-11-07T13:12:51.161Z,16.95
2017-11-07T13:15:19.423Z,16.75
2017-11-07T13:17:47.665Z,14.90
2017-11-07T13:20:15.220Z,17.45
2017-11-07T13:22:43.477Z,17.58
2017-11-07T13:25:10.944Z,16.35
2017-11-07T13:27:39.272Z,17.35
2017-11-07T13:30:06.760Z,16.45
2017-11-07T13:32:34.229Z,15.38
2017-11-07T13:35:01.730Z,16.12
2017-11-07T13:37:30.180Z,16.08
2017-11-07T13:39:58.412Z,17.00
2017-11-07T13:42:25.881Z,15.35
2017-11-07T13:44:54.145Z,17.33
2017-11-07T13:47:22.376Z,15.13
2017-11-07T13:49:49.845Z,16.15
2017-11-07T13:52:18.104Z,16.35
2017-11-07T13:54:46.414Z,16.65
2017-11-07T13:57:13.905Z,16.20
2017-11-07T13:59:42.161Z,16.55
2017-11-07T14:02:10.396Z,15.07
2017-11-07T14:04:37.868Z,15.32
2017-11-07T14:07:06.132Z,15.30
2017-11-07T14:09:34.366Z,14.80
2017-11-07T14:12:01.934Z,21.17
2017-11-07T14:14:30.271Z,16.50
2017-11-07T14:16:57.837Z,21.05
2017-11-07T14:19:26.097Z,18.80
2017-11-07T14:21:54.457Z,18.30
2017-11-07T14:24:22.694Z,17.62
2017-11-07T14:26:50.161Z,18.58
2017-11-07T14:29:18.416Z,22.83
2017-11-07T14:31:45.873Z,17.65
2017-11-07T14:34:14.125Z,23.17
2017-11-07T14:36:42.360Z,17.50
2017-11-07T14:39:09.827Z,21.80
2017-11-07T14:41:38.065Z,19.37
2017-11-07T14:44:05.626Z,16.30
2017-11-07T14:46:33.092Z,19.83
2017-11-07T14:49:00.550Z,26.70
2017-11-07T14:51:28.033Z,31.23
2017-11-07T14:53:55.604Z,42.22
2017-11-07T14:56:23.830Z,40.65
2017-11-07T14:58:51.503Z,30.40
2017-11-07T15:01:19.765Z,35.47
2017-11-07T15:03:48.077Z,49.75
2017-11-07T15:06:15.576Z,129.87
2017-11-07T15:08:43.801Z,44.60
2017-11-07T15:11:12.092Z,36.97
2017-11-07T15:13:40.329Z,37.10
2017-11-07T15:16:07.889Z,39.63
2017-11-07T15:18:36.157Z,33.63
2017-11-07T15:21:04.388Z,52.42
2017-11-07T15:23:31.852Z,56.83
2017-11-07T15:26:00.115Z,26.80
2017-11-07T15:28:28.341Z,23.10
2017-11-07T15:30:55.801Z,59.60
2017-11-07T15:33:23.361Z,37.67
2017-11-07T15:35:51.616Z,19.02
2017-11-07T15:38:19.840Z,19.50
2017-11-07T15:40:47.320Z,17.87
2017-11-07T15:43:15.631Z,16.75
2017-11-07T15:45:43.122Z,16.70
2017-11-07T15:48:11.400Z,18.05
2017-11-07T15:50:38.893Z,17.40
2017-11-07T15:53:06.351Z,17.98
2017-11-07T15:55:33.916Z,17.37
2017-11-07T15:58:02.164Z,17.20
2017-11-07T16:00:30.428Z,15.13
2017-11-07T16:02:58.688Z,15.50
2017-11-07T16:05:26.953Z,17.90
2017-11-07T16:07:55.176Z,17.85
2017-11-07T16:10:22.645Z,21.20
2017-11-07T16:12:50.105Z,16.65
2017-11-07T16:15:18.356Z,15.15
2017-11-07T16:17:46.613Z,15.32
2017-11-07T16:20:14.841Z,16.37
2017-11-07T16:22:42.301Z,15.65
2017-11-07T16:25:09.840Z,16.75
2017-11-07T16:27:38.811Z,16.55
2017-11-07T16:30:06.377Z,17.85
2017-11-07T16:32:33.964Z,16.58
2017-11-07T16:35:01.428Z,17.05
2017-11-07T16:37:30.030Z,18.75
2017-11-07T16:39:57.493Z,17.55
2017-11-07T16:42:25.734Z,18.30
2017-11-07T16:44:53.997Z,18.40
2017-11-07T16:47:22.255Z,17.77
2017-11-07T16:49:50.484Z,18.60
2017-11-07T16:52:18.146Z,18.45
2017-11-07T16:54:45.604Z,16.55
2017-11-07T16:57:13.833Z,14.60
2017-11-07T16:59:41.314Z,18.50
2017-11-07T17:02:09.537Z,21.90
2017-11-07T17:04:36.997Z,16.33
2017-11-07T17:07:04.465Z,14.75
2017-11-07T17:09:31.940Z,16.62
2017-11-07T17:11:59.428Z,33.78
2017-11-07T17:14:27.688Z,31.33
2017-11-07T17:16:56.044Z,30.30
2017-11-07T17:19:23.497Z,25.30
2017-11-07T17:21:51.761Z,21.67
2017-11-07T17:24:20.085Z,24.85
2017-11-07T17:26:47.557Z,21.80
2017-11-07T17:29:15.812Z,16.92
2017-11-07T17:31:43.369Z,28.92
2017-11-07T17:34:11.630Z,23.08
2017-11-07T17:36:39.884Z,19.58
2017-11-07T17:39:08.113Z,17.20
2017-11-07T17:41:35.685Z,26.25
2017-11-07T17:44:03.911Z,20.83
2017-11-07T17:46:31.484Z,15.65
2017-11-07T17:48:59.753Z,17.42
2017-11-07T17:51:28.001Z,17.48
2017-11-07T17:53:56.233Z,18.15
2017-11-07T17:56:23.688Z,19.50
2017-11-07T17:58:51.255Z,17.12
2017-11-07T18:01:19.481Z,19.65
2017-11-07T18:03:46.954Z,15.55
2017-11-07T18:06:15.192Z,16.00
2017-11-07T18:08:42.664Z,16.75
2017-11-07T18:11:10.920Z,16.73
2017-11-07T18:13:39.145Z,17.08
2017-11-07T18:16:06.601Z,15.43
2017-11-07T18:18:34.092Z,15.10
2017-11-07T18:21:01.552Z,17.67
2017-11-07T18:23:29.012Z,15.00
2017-11-07T18:25:56.694Z,15.48
2017-11-07T18:28:24.944Z,15.38
2017-11-07T18:30:53.204Z,17.12
2017-11-07T18:33:21.464Z,16.25
2017-11-07T18:35:49.722Z,15.30
2017-11-07T18:38:17.985Z,13.60
2017-11-07T18:40:46.221Z,14.40
2017-11-07T18:43:13.789Z,15.10
2017-11-07T18:45:42.045Z,14.07
2017-11-07T18:48:09.515Z,13.20
2017-11-07T18:50:36.980Z,14.27
2017-11-07T18:53:04.444Z,14.77
2017-11-07T18:55:31.925Z,16.00
2017-11-07T18:58:00.609Z,15.40
2017-11-07T19:00:28.064Z,15.77
2017-11-07T19:02:55.568Z,14.00
2017-11-07T19:05:23.837Z,16.10
2017-11-07T19:07:52.088Z,16.15
2017-11-07T19:10:20.353Z,16.83
2017-11-07T19:12:48.616Z,17.85
2017-11-07T19:15:16.848Z,15.82
2017-11-07T19:17:44.308Z,15.85
2017-11-07T19:20:12.545Z,15.52
2017-11-07T19:22:40.012Z,14.70
2017-11-07T19:25:07.564Z,15.70
2017-11-07T19:27:35.871Z,14.90
2017-11-07T19:30:03.329Z,15.80
2017-11-07T19:32:30.900Z,16.12
2017-11-07T19:34:59.169Z,17.05
2017-11-07T19:37:27.421Z,14.90
2017-11-07T19:39:55.664Z,17.40
2017-11-07T19:42:23.133Z,16.75
2017-11-07T19:44:51.388Z,16.42
2017-11-07T19:47:19.864Z,16.05
2017-11-07T19:49:48.117Z,16.52
2017-11-07T19:52:16.341Z,18.37
2017-11-07T19:54:43.819Z,17.08
2017-11-07T19:57:12.048Z,29.27
2017-11-07T19:59:39.513Z,32.38
2017-11-07T20:02:07.755Z,25.70
2017-11-07T20:04:35.321Z,25.05
2017-11-07T20:07:03.548Z,22.55
2017-11-07T20:09:31.121Z,21.80
2017-11-07T20:11:59.348Z,20.45
2017-11-07T20:14:26.836Z,20.80
2017-11-07T20:16:55.063Z,20.52
2017-11-07T20:19:22.533Z,21.08
2017-11-07T20:21:50.775Z,20.12
2017-11-07T20:24:18.330Z,19.92
2017-11-07T20:26:46.594Z,22.67
2017-11-07T20:29:14.857Z,22.23
2017-11-07T20:31:43.101Z,22.67
2017-11-07T20:34:10.653Z,22.20
2017-11-07T20:36:38.937Z,21.35
2017-11-07T20:39:06.394Z,21.65
2017-11-07T20:41:33.878Z,22.48
2017-11-07T20:44:01.346Z,20.15
2017-11-07T20:46:29.582Z,21.17
2017-11-07T20:48:57.143Z,21.25
2017-11-07T20:51:25.374Z,21.30
2017-11-07T20:53:52.848Z,20.12
2017-11-07T20:56:21.100Z,22.35
2017-11-07T20:58:48.559Z,22.02
2017-11-07T21:01:16.784Z,21.45
2017-11-07T21:03:44.248Z,23.75
2017-11-07T21:06:12.504Z,21.52
2017-11-07T21:08:40.728Z,23.10
2017-11-07T21:11:08.217Z,22.75
2017-11-07T21:13:36.468Z,22.30
2017-11-07T21:16:04.733Z,23.30
2017-11-07T21:18:32.988Z,24.60
2017-11-07T21:21:01.225Z,24.70
2017-11-07T21:23:28.692Z,22.05
2017-11-07T21:25:56.929Z,22.45
2017-11-07T21:28:24.393Z,24.00
2017-11-07T21:30:52.841Z,24.42
2017-11-07T21:33:20.301Z,23.12
2017-11-07T21:35:48.557Z,22.05
2017-11-07T21:38:16.794Z,23.85
2017-11-07T21:40:44.260Z,19.87
2017-11-07T21:43:12.505Z,21.48
2017-11-07T21:45:40.060Z,23.98
2017-11-07T21:48:08.285Z,22.77
2017-11-07T21:50:35.773Z,22.05
2017-11-07T21:53:04.028Z,22.92
2017-11-07T21:55:32.256Z,23.83
2017-11-07T21:57:59.829Z,22.62
2017-11-07T22:00:28.084Z,35.45
2017-11-07T22:02:56.309Z,27.80
2017-11-07T22:05:23.776Z,26.30
2017-11-07T22:07:51.246Z,25.35
2017-11-07T22:10:19.481Z,24.87
2017-11-07T22:12:47.037Z,23.73
2017-11-07T22:15:15.293Z,23.40
2017-11-07T22:17:46.120Z,24.80
2017-11-07T22:20:14.372Z,23.30
2017-11-07T22:22:45.185Z,23.42
2017-11-07T22:25:27.238Z,24.70
2017-11-07T22:27:54.766Z,25.73
2017-11-07T22:30:23.032Z,24.63
2017-11-07T22:32:51.255Z,23.35
2017-11-07T22:35:18.720Z,22.90
2017-11-07T22:37:46.952Z,22.10
2017-11-07T22:40:14.524Z,22.17
2017-11-07T22:42:42.792Z,21.42
2017-11-07T22:45:11.013Z,21.12
2017-11-07T22:47:38.492Z,21.45
2017-11-07T22:50:06.753Z,21.52
2017-11-07T22:52:34.985Z,22.67
2017-11-07T22:55:02.437Z,20.80
2017-11-07T22:57:29.909Z,22.75
2017-11-07T22:59:57.436Z,22.25
2017-11-07T23:02:25.792Z,21.25
2017-11-07T23:04:53.344Z,22.27
2017-11-07T23:07:21.605Z,21.83
2017-11-07T23:09:49.861Z,22.45
2017-11-07T23:12:18.125Z,20.85
2017-11-07T23:14:46.387Z,21.12
2017-11-07T23:17:14.645Z,21.45
2017-11-07T23:19:42.877Z,19.83
2017-11-07T23:22:10.539Z,22.13
2017-11-07T23:24:38.001Z,22.25
2017-11-07T23:27:06.228Z,20.40
2017-11-07T23:29:34.483Z,22.17
2017-11-07T23:32:01.981Z,20.12
2017-11-07T23:34:29.441Z,21.02
2017-11-07T23:36:56.938Z,19.42
2017-11-07T23:39:25.168Z,20.60
2017-11-07T23:41:52.654Z,20.40
2017-11-07T23:44:20.899Z,21.92
2017-11-07T23:46:49.165Z,19.60
2017-11-07T23:49:17.430Z,20.77
2017-11-07T23:51:45.776Z,22.02
2017-11-07T23:54:14.037Z,21.77
2017-11-07T23:56:42.300Z,22.05
2017-11-07T23:59:10.560Z,23.10
